Hauptseite
METAR-TAF:

METAR-TAF

Flughäfen :

Ørland, Norwegen

Breite: 63-42N, Länge: 009-36E, Höhe: 0 m

Beobachtung

Neuester Wetterbericht von vor 28 Minuten, um 17:20 UTC
Wind 6 kt aus Nord
Temperatur 21°C
Luftfeuchtigkeit 43%
Luftdruck 1016 hPa
Sichtweite 10 km oder mehr
keine Wolken unter 1500 m und keine Kumulonimbus oder Gewitterwolken

METAR: ENOL 231720Z 01006KT CAVOK 21/08 Q1016 NOSIG

Zeit: 19:48 (17:48 UTC)

Prognose

Neuester Wetterbericht von vor 6 Stunden und 48 Minuten, um 11:00 UTC
Gültige Prognose vom 23 um 12 UTC bis 24 um 12 UTC
Wind 10 kt aus Nord/Nordwest
Sichtweite 10 km oder mehr
keine Wolken unter 1500 m und keine Kumulonimbus oder Gewitterwolken
Übergehend zu
vom 23 um 18 UTC bis 23 um 21 UTC
Wind 5 kt aus West
Übergehend zu
vom 24 um 09 UTC bis 24 um 12 UTC
Wind 10 kt aus Nord

TAF: ENOL 231100Z 2312/2412 34010KT CAVOK BECMG 2318/2321 27005KT BECMG 2409/2412 35010KT

Wetterbeobachtungen und Prognosen von mehr als 4000 Flughäfen (METAR und TAF Bericht).

Die verfügbaren Stationen werden durch gelbe und rote Markierungen auf der Karte dargestellt.

Führen Sie die Maus auf sie, um den Namen der Station zu sehen.

Darauf klicken, um die Beobachtung von Wetterbeobachtungen und Prognosen zu sehen.

Um die Karte zu ändern : klicken Sie auf den grünen Tasten mit einem schwarzen Kreuz Zum Vergrößern, auf den grünen Button mit einem Gedankenstrich zu verkleinern, oder auf die grünen Pfeile für benachbarte Karten.


METAR-TAF: